sensor_id;sensor_type;location;lat;lon;timestamp;P1;durP1;ratioP1;P2;durP2;ratioP2
18997;SDS011;9632;51.018;4.284;2022-09-09T00:00:37;2.92;;;0.70;;
18997;SDS011;9632;51.018;4.284;2022-09-09T00:08:42;4.85;;;1.05;;
18997;SDS011;9632;51.018;4.284;2022-09-09T00:11:26;2.72;;;0.90;;
18997;SDS011;9632;51.018;4.284;2022-09-09T00:13:58;2.95;;;0.80;;
18997;SDS011;9632;51.018;4.284;2022-09-09T00:16:28;5.65;;;0.98;;
18997;SDS011;9632;51.018;4.284;2022-09-09T00:21:30;5.40;;;0.68;;
18997;SDS011;9632;51.018;4.284;2022-09-09T00:23:59;3.25;;;0.90;;
18997;SDS011;9632;51.018;4.284;2022-09-09T00:29:33;3.53;;;0.80;;
18997;SDS011;9632;51.018;4.284;2022-09-09T00:32:13;3.10;;;0.93;;
18997;SDS011;9632;51.018;4.284;2022-09-09T00:34:47;7.40;;;1.33;;
18997;SDS011;9632;51.018;4.284;2022-09-09T00:37:13;2.85;;;0.80;;
18997;SDS011;9632;51.018;4.284;2022-09-09T00:39:44;3.45;;;0.77;;
18997;SDS011;9632;51.018;4.284;2022-09-09T00:42:14;2.90;;;0.80;;
18997;SDS011;9632;51.018;4.284;2022-09-09T00:47:28;3.90;;;1.00;;
18997;SDS011;9632;51.018;4.284;2022-09-09T00:58:15;6.88;;;1.98;;
18997;SDS011;9632;51.018;4.284;2022-09-09T01:11:22;5.57;;;2.40;;
18997;SDS011;9632;51.018;4.284;2022-09-09T01:16:56;5.95;;;2.30;;
18997;SDS011;9632;51.018;4.284;2022-09-09T01:25:13;5.78;;;2.20;;
18997;SDS011;9632;51.018;4.284;2022-09-09T01:27:49;5.95;;;2.22;;
18997;SDS011;9632;51.018;4.284;2022-09-09T01:30:17;4.35;;;1.90;;
18997;SDS011;9632;51.018;4.284;2022-09-09T01:32:45;7.82;;;2.03;;
18997;SDS011;9632;51.018;4.284;2022-09-09T01:38:27;6.80;;;2.22;;
18997;SDS011;9632;51.018;4.284;2022-09-09T01:40:55;5.18;;;1.67;;
18997;SDS011;9632;51.018;4.284;2022-09-09T01:43:21;7.38;;;1.67;;
18997;SDS011;9632;51.018;4.284;2022-09-09T01:45:48;6.50;;;1.98;;
18997;SDS011;9632;51.018;4.284;2022-09-09T01:48:18;7.35;;;2.05;;
18997;SDS011;9632;51.018;4.284;2022-09-09T01:50:45;8.40;;;1.65;;
18997;SDS011;9632;51.018;4.284;2022-09-09T01:59:37;6.30;;;1.40;;
18997;SDS011;9632;51.018;4.284;2022-09-09T02:04:49;11.43;;;1.80;;
18997;SDS011;9632;51.018;4.284;2022-09-09T02:13:18;6.80;;;1.30;;
18997;SDS011;9632;51.018;4.284;2022-09-09T02:18:34;7.05;;;1.38;;
18997;SDS011;9632;51.018;4.284;2022-09-09T02:21:00;8.20;;;1.17;;
18997;SDS011;9632;51.018;4.284;2022-09-09T02:23:28;7.95;;;1.30;;
18997;SDS011;9632;51.018;4.284;2022-09-09T02:25:56;6.15;;;1.30;;
18997;SDS011;9632;51.018;4.284;2022-09-09T02:28:24;6.28;;;1.27;;
18997;SDS011;9632;51.018;4.284;2022-09-09T02:30:51;10.38;;;1.30;;
18997;SDS011;9632;51.018;4.284;2022-09-09T02:33:22;3.33;;;0.88;;
18997;SDS011;9632;51.018;4.284;2022-09-09T02:35:52;6.63;;;1.10;;
18997;SDS011;9632;51.018;4.284;2022-09-09T02:38:18;8.98;;;1.13;;
18997;SDS011;9632;51.018;4.284;2022-09-09T02:40:47;7.85;;;1.33;;
18997;SDS011;9632;51.018;4.284;2022-09-09T02:43:14;6.53;;;1.20;;
18997;SDS011;9632;51.018;4.284;2022-09-09T02:45:42;7.78;;;1.25;;
18997;SDS011;9632;51.018;4.284;2022-09-09T02:48:20;10.80;;;1.50;;
18997;SDS011;9632;51.018;4.284;2022-09-09T02:51:24;9.85;;;1.58;;
18997;SDS011;9632;51.018;4.284;2022-09-09T02:56:29;11.43;;;1.67;;
18997;SDS011;9632;51.018;4.284;2022-09-09T02:59:02;10.77;;;1.63;;
18997;SDS011;9632;51.018;4.284;2022-09-09T03:01:29;6.47;;;1.20;;
18997;SDS011;9632;51.018;4.284;2022-09-09T03:03:55;7.20;;;1.13;;
18997;SDS011;9632;51.018;4.284;2022-09-09T03:06:20;5.32;;;1.27;;
18997;SDS011;9632;51.018;4.284;2022-09-09T03:08:46;8.35;;;1.75;;
18997;SDS011;9632;51.018;4.284;2022-09-09T03:11:14;9.93;;;1.33;;
18997;SDS011;9632;51.018;4.284;2022-09-09T03:13:41;11.35;;;1.70;;
18997;SDS011;9632;51.018;4.284;2022-09-09T03:16:06;7.40;;;1.40;;
18997;SDS011;9632;51.018;4.284;2022-09-09T03:18:32;7.88;;;1.20;;
18997;SDS011;9632;51.018;4.284;2022-09-09T03:20:59;12.02;;;2.05;;
18997;SDS011;9632;51.018;4.284;2022-09-09T03:23:25;9.10;;;1.40;;
18997;SDS011;9632;51.018;4.284;2022-09-09T03:25:51;13.32;;;1.42;;
18997;SDS011;9632;51.018;4.284;2022-09-09T03:28:17;11.98;;;1.40;;
18997;SDS011;9632;51.018;4.284;2022-09-09T03:30:43;10.02;;;1.60;;
18997;SDS011;9632;51.018;4.284;2022-09-09T03:33:09;10.70;;;1.42;;
18997;SDS011;9632;51.018;4.284;2022-09-09T03:35:35;9.90;;;1.50;;
18997;SDS011;9632;51.018;4.284;2022-09-09T03:38:01;8.27;;;1.30;;
18997;SDS011;9632;51.018;4.284;2022-09-09T03:40:26;8.18;;;1.27;;
18997;SDS011;9632;51.018;4.284;2022-09-09T03:42:52;13.95;;;1.65;;
18997;SDS011;9632;51.018;4.284;2022-09-09T03:45:18;14.00;;;1.65;;
18997;SDS011;9632;51.018;4.284;2022-09-09T03:47:43;13.48;;;1.60;;
18997;SDS011;9632;51.018;4.284;2022-09-09T03:50:10;9.18;;;1.70;;
18997;SDS011;9632;51.018;4.284;2022-09-09T03:52:36;9.55;;;1.67;;
18997;SDS011;9632;51.018;4.284;2022-09-09T03:55:03;8.52;;;1.60;;
18997;SDS011;9632;51.018;4.284;2022-09-09T03:57:29;15.48;;;2.03;;
18997;SDS011;9632;51.018;4.284;2022-09-09T03:59:55;10.13;;;1.80;;
18997;SDS011;9632;51.018;4.284;2022-09-09T04:02:20;13.77;;;1.90;;
18997;SDS011;9632;51.018;4.284;2022-09-09T04:04:46;11.80;;;1.60;;
18997;SDS011;9632;51.018;4.284;2022-09-09T04:07:12;12.77;;;1.65;;
18997;SDS011;9632;51.018;4.284;2022-09-09T04:09:38;11.95;;;1.80;;
18997;SDS011;9632;51.018;4.284;2022-09-09T04:12:04;8.48;;;1.38;;
18997;SDS011;9632;51.018;4.284;2022-09-09T04:14:31;12.85;;;1.60;;
18997;SDS011;9632;51.018;4.284;2022-09-09T04:16:57;9.52;;;1.60;;
18997;SDS011;9632;51.018;4.284;2022-09-09T04:19:24;6.45;;;1.27;;
18997;SDS011;9632;51.018;4.284;2022-09-09T04:21:50;7.25;;;1.48;;
18997;SDS011;9632;51.018;4.284;2022-09-09T04:24:16;16.05;;;2.15;;
18997;SDS011;9632;51.018;4.284;2022-09-09T04:26:42;9.50;;;1.73;;
18997;SDS011;9632;51.018;4.284;2022-09-09T04:29:08;13.18;;;1.63;;
18997;SDS011;9632;51.018;4.284;2022-09-09T04:31:34;8.77;;;1.60;;
18997;SDS011;9632;51.018;4.284;2022-09-09T04:34:00;12.75;;;1.50;;
18997;SDS011;9632;51.018;4.284;2022-09-09T04:36:30;10.77;;;1.60;;
18997;SDS011;9632;51.018;4.284;2022-09-09T04:38:57;12.80;;;1.90;;
18997;SDS011;9632;51.018;4.284;2022-09-09T04:41:23;10.20;;;1.58;;
18997;SDS011;9632;51.018;4.284;2022-09-09T04:43:49;13.52;;;1.80;;
18997;SDS011;9632;51.018;4.284;2022-09-09T04:46:14;15.27;;;2.20;;
18997;SDS011;9632;51.018;4.284;2022-09-09T04:48:42;9.40;;;1.48;;
18997;SDS011;9632;51.018;4.284;2022-09-09T04:51:09;14.75;;;2.00;;
18997;SDS011;9632;51.018;4.284;2022-09-09T04:53:38;11.15;;;1.70;;
18997;SDS011;9632;51.018;4.284;2022-09-09T04:58:38;11.57;;;1.80;;
18997;SDS011;9632;51.018;4.284;2022-09-09T05:03:34;12.00;;;2.13;;
18997;SDS011;9632;51.018;4.284;2022-09-09T05:08:36;17.98;;;1.85;;
18997;SDS011;9632;51.018;4.284;2022-09-09T05:11:03;12.98;;;1.90;;
18997;SDS011;9632;51.018;4.284;2022-09-09T05:13:49;11.02;;;1.67;;
18997;SDS011;9632;51.018;4.284;2022-09-09T05:16:15;11.20;;;1.85;;
18997;SDS011;9632;51.018;4.284;2022-09-09T05:18:42;12.23;;;2.10;;
18997;SDS011;9632;51.018;4.284;2022-09-09T05:21:08;14.65;;;2.05;;
18997;SDS011;9632;51.018;4.284;2022-09-09T05:23:34;9.90;;;1.80;;
18997;SDS011;9632;51.018;4.284;2022-09-09T05:26:01;12.93;;;1.75;;
18997;SDS011;9632;51.018;4.284;2022-09-09T05:28:27;12.80;;;1.70;;
18997;SDS011;9632;51.018;4.284;2022-09-09T05:31:01;13.40;;;1.80;;
18997;SDS011;9632;51.018;4.284;2022-09-09T05:33:33;13.90;;;1.77;;
18997;SDS011;9632;51.018;4.284;2022-09-09T05:36:04;11.27;;;1.60;;
18997;SDS011;9632;51.018;4.284;2022-09-09T05:41:53;15.88;;;2.03;;
18997;SDS011;9632;51.018;4.284;2022-09-09T05:44:18;12.18;;;1.75;;
18997;SDS011;9632;51.018;4.284;2022-09-09T05:46:44;15.98;;;1.88;;
18997;SDS011;9632;51.018;4.284;2022-09-09T05:49:10;12.80;;;1.63;;
18997;SDS011;9632;51.018;4.284;2022-09-09T05:51:35;9.38;;;1.30;;
18997;SDS011;9632;51.018;4.284;2022-09-09T05:57:23;9.85;;;1.65;;
18997;SDS011;9632;51.018;4.284;2022-09-09T05:59:48;14.07;;;1.92;;
18997;SDS011;9632;51.018;4.284;2022-09-09T06:02:14;14.13;;;1.80;;
18997;SDS011;9632;51.018;4.284;2022-09-09T06:04:40;14.52;;;1.77;;
18997;SDS011;9632;51.018;4.284;2022-09-09T06:07:06;12.63;;;1.83;;
18997;SDS011;9632;51.018;4.284;2022-09-09T06:09:32;10.13;;;1.58;;
18997;SDS011;9632;51.018;4.284;2022-09-09T06:11:58;10.02;;;1.80;;
18997;SDS011;9632;51.018;4.284;2022-09-09T06:14:24;9.13;;;1.77;;
18997;SDS011;9632;51.018;4.284;2022-09-09T06:16:50;10.75;;;1.73;;
18997;SDS011;9632;51.018;4.284;2022-09-09T06:19:16;18.60;;;2.05;;
18997;SDS011;9632;51.018;4.284;2022-09-09T06:21:42;9.82;;;2.28;;
18997;SDS011;9632;51.018;4.284;2022-09-09T06:24:09;9.00;;;1.77;;
18997;SDS011;9632;51.018;4.284;2022-09-09T06:26:37;14.27;;;2.42;;
18997;SDS011;9632;51.018;4.284;2022-09-09T06:29:07;13.25;;;2.15;;
18997;SDS011;9632;51.018;4.284;2022-09-09T06:34:27;14.90;;;2.28;;
18997;SDS011;9632;51.018;4.284;2022-09-09T06:36:53;13.38;;;2.13;;
18997;SDS011;9632;51.018;4.284;2022-09-09T06:39:40;27.75;;;2.05;;
18997;SDS011;9632;51.018;4.284;2022-09-09T06:42:06;10.80;;;1.70;;
18997;SDS011;9632;51.018;4.284;2022-09-09T06:44:33;19.17;;;1.90;;
18997;SDS011;9632;51.018;4.284;2022-09-09T06:47:17;16.80;;;1.60;;
18997;SDS011;9632;51.018;4.284;2022-09-09T06:49:43;17.45;;;1.85;;
18997;SDS011;9632;51.018;4.284;2022-09-09T06:52:08;22.30;;;2.10;;
18997;SDS011;9632;51.018;4.284;2022-09-09T06:54:34;12.88;;;1.63;;
18997;SDS011;9632;51.018;4.284;2022-09-09T06:57:02;11.13;;;1.55;;
18997;SDS011;9632;51.018;4.284;2022-09-09T06:59:28;11.13;;;1.95;;
18997;SDS011;9632;51.018;4.284;2022-09-09T07:01:55;14.00;;;1.90;;
18997;SDS011;9632;51.018;4.284;2022-09-09T07:04:21;13.07;;;1.63;;
18997;SDS011;9632;51.018;4.284;2022-09-09T07:06:47;10.80;;;1.48;;
18997;SDS011;9632;51.018;4.284;2022-09-09T07:09:13;11.38;;;1.13;;
18997;SDS011;9632;51.018;4.284;2022-09-09T07:11:42;17.15;;;1.73;;
18997;SDS011;9632;51.018;4.284;2022-09-09T07:14:09;10.75;;;1.48;;
18997;SDS011;9632;51.018;4.284;2022-09-09T07:16:39;9.25;;;1.42;;
18997;SDS011;9632;51.018;4.284;2022-09-09T07:19:06;11.75;;;1.88;;
18997;SDS011;9632;51.018;4.284;2022-09-09T07:21:33;18.38;;;1.50;;
18997;SDS011;9632;51.018;4.284;2022-09-09T07:23:59;9.52;;;1.70;;
18997;SDS011;9632;51.018;4.284;2022-09-09T07:26:26;20.73;;;2.20;;
18997;SDS011;9632;51.018;4.284;2022-09-09T07:28:54;12.68;;;1.90;;
18997;SDS011;9632;51.018;4.284;2022-09-09T07:31:25;12.63;;;1.60;;
18997;SDS011;9632;51.018;4.284;2022-09-09T07:33:52;10.98;;;1.98;;
18997;SDS011;9632;51.018;4.284;2022-09-09T07:36:22;15.35;;;2.10;;
18997;SDS011;9632;51.018;4.284;2022-09-09T07:38:51;10.95;;;1.55;;
18997;SDS011;9632;51.018;4.284;2022-09-09T07:41:28;11.73;;;1.58;;
18997;SDS011;9632;51.018;4.284;2022-09-09T07:43:59;11.23;;;1.58;;
18997;SDS011;9632;51.018;4.284;2022-09-09T07:46:28;6.72;;;1.30;;
18997;SDS011;9632;51.018;4.284;2022-09-09T07:48:55;10.27;;;1.83;;
18997;SDS011;9632;51.018;4.284;2022-09-09T07:51:25;11.40;;;1.80;;
18997;SDS011;9632;51.018;4.284;2022-09-09T07:53:56;11.52;;;1.55;;
18997;SDS011;9632;51.018;4.284;2022-09-09T07:59:20;7.60;;;1.70;;
18997;SDS011;9632;51.018;4.284;2022-09-09T08:01:47;13.70;;;1.92;;
18997;SDS011;9632;51.018;4.284;2022-09-09T08:04:16;9.98;;;1.33;;
18997;SDS011;9632;51.018;4.284;2022-09-09T08:06:44;11.60;;;1.42;;
18997;SDS011;9632;51.018;4.284;2022-09-09T08:09:31;9.80;;;1.50;;
18997;SDS011;9632;51.018;4.284;2022-09-09T08:11:58;11.73;;;1.48;;
18997;SDS011;9632;51.018;4.284;2022-09-09T08:14:24;12.23;;;1.95;;
18997;SDS011;9632;51.018;4.284;2022-09-09T08:16:50;13.52;;;2.03;;
18997;SDS011;9632;51.018;4.284;2022-09-09T08:19:18;8.15;;;1.88;;
18997;SDS011;9632;51.018;4.284;2022-09-09T08:21:43;11.43;;;1.60;;
18997;SDS011;9632;51.018;4.284;2022-09-09T08:24:10;9.45;;;1.10;;
18997;SDS011;9632;51.018;4.284;2022-09-09T08:26:37;10.48;;;1.10;;
18997;SDS011;9632;51.018;4.284;2022-09-09T08:29:05;7.22;;;1.30;;
18997;SDS011;9632;51.018;4.284;2022-09-09T08:31:33;9.40;;;1.10;;
18997;SDS011;9632;51.018;4.284;2022-09-09T08:34:00;12.02;;;1.83;;
18997;SDS011;9632;51.018;4.284;2022-09-09T08:43:23;9.32;;;1.40;;
18997;SDS011;9632;51.018;4.284;2022-09-09T08:45:50;12.77;;;1.60;;
18997;SDS011;9632;51.018;4.284;2022-09-09T08:49:02;11.63;;;1.63;;
18997;SDS011;9632;51.018;4.284;2022-09-09T08:51:45;14.10;;;1.80;;
18997;SDS011;9632;51.018;4.284;2022-09-09T08:54:13;9.73;;;1.70;;
18997;SDS011;9632;51.018;4.284;2022-09-09T08:56:38;15.23;;;1.77;;
18997;SDS011;9632;51.018;4.284;2022-09-09T08:59:04;10.63;;;1.33;;
18997;SDS011;9632;51.018;4.284;2022-09-09T09:12:46;9.30;;;1.40;;
18997;SDS011;9632;51.018;4.284;2022-09-09T09:15:18;10.05;;;1.73;;
18997;SDS011;9632;51.018;4.284;2022-09-09T09:20:40;10.30;;;1.42;;
18997;SDS011;9632;51.018;4.284;2022-09-09T09:23:49;10.30;;;1.35;;
18997;SDS011;9632;51.018;4.284;2022-09-09T09:26:29;8.50;;;1.15;;
18997;SDS011;9632;51.018;4.284;2022-09-09T09:28:57;8.50;;;1.33;;
18997;SDS011;9632;51.018;4.284;2022-09-09T09:31:24;7.10;;;1.30;;
18997;SDS011;9632;51.018;4.284;2022-09-09T09:33:55;12.50;;;1.88;;
18997;SDS011;9632;51.018;4.284;2022-09-09T09:36:34;8.27;;;1.63;;
18997;SDS011;9632;51.018;4.284;2022-09-09T09:39:03;6.43;;;1.33;;
18997;SDS011;9632;51.018;4.284;2022-09-09T09:41:34;7.28;;;1.63;;
18997;SDS011;9632;51.018;4.284;2022-09-09T09:44:05;7.43;;;1.30;;
18997;SDS011;9632;51.018;4.284;2022-09-09T09:46:46;9.10;;;1.20;;
18997;SDS011;9632;51.018;4.284;2022-09-09T09:49:12;7.32;;;1.25;;
18997;SDS011;9632;51.018;4.284;2022-09-09T09:51:38;14.40;;;1.83;;
18997;SDS011;9632;51.018;4.284;2022-09-09T09:56:34;12.15;;;1.45;;
18997;SDS011;9632;51.018;4.284;2022-09-09T09:59:00;6.88;;;1.23;;
18997;SDS011;9632;51.018;4.284;2022-09-09T10:01:27;9.07;;;1.50;;
18997;SDS011;9632;51.018;4.284;2022-09-09T10:04:01;7.82;;;1.65;;
18997;SDS011;9632;51.018;4.284;2022-09-09T10:06:40;8.38;;;1.30;;
18997;SDS011;9632;51.018;4.284;2022-09-09T10:09:22;10.23;;;1.40;;
18997;SDS011;9632;51.018;4.284;2022-09-09T10:14:39;5.90;;;1.13;;
18997;SDS011;9632;51.018;4.284;2022-09-09T10:17:15;7.93;;;1.73;;
18997;SDS011;9632;51.018;4.284;2022-09-09T10:19:49;8.38;;;1.33;;
18997;SDS011;9632;51.018;4.284;2022-09-09T10:22:44;8.52;;;1.15;;
18997;SDS011;9632;51.018;4.284;2022-09-09T10:33:32;12.00;;;1.30;;
18997;SDS011;9632;51.018;4.284;2022-09-09T10:39:33;9.40;;;1.05;;
18997;SDS011;9632;51.018;4.284;2022-09-09T10:41:54;6.63;;;1.15;;
18997;SDS011;9632;51.018;4.284;2022-09-09T10:57:50;6.55;;;1.27;;
18997;SDS011;9632;51.018;4.284;2022-09-09T11:00:30;8.63;;;1.17;;
18997;SDS011;9632;51.018;4.284;2022-09-09T11:03:03;3.05;;;0.70;;
18997;SDS011;9632;51.018;4.284;2022-09-09T11:05:31;8.48;;;1.30;;
18997;SDS011;9632;51.018;4.284;2022-09-09T11:08:08;8.90;;;1.35;;
18997;SDS011;9632;51.018;4.284;2022-09-09T11:10:41;8.65;;;1.30;;
18997;SDS011;9632;51.018;4.284;2022-09-09T11:16:28;7.53;;;0.95;;
18997;SDS011;9632;51.018;4.284;2022-09-09T11:25:22;8.65;;;0.90;;
18997;SDS011;9632;51.018;4.284;2022-09-09T11:38:52;10.07;;;1.45;;
18997;SDS011;9632;51.018;4.284;2022-09-09T11:41:32;4.93;;;0.80;;
18997;SDS011;9632;51.018;4.284;2022-09-09T11:43:59;5.10;;;0.75;;
18997;SDS011;9632;51.018;4.284;2022-09-09T11:46:35;4.13;;;0.73;;
18997;SDS011;9632;51.018;4.284;2022-09-09T11:49:04;5.90;;;0.82;;
18997;SDS011;9632;51.018;4.284;2022-09-09T11:51:32;7.93;;;0.90;;
18997;SDS011;9632;51.018;4.284;2022-09-09T11:56:58;6.95;;;0.90;;
18997;SDS011;9632;51.018;4.284;2022-09-09T11:59:29;3.80;;;0.70;;
18997;SDS011;9632;51.018;4.284;2022-09-09T12:04:48;4.38;;;0.95;;
18997;SDS011;9632;51.018;4.284;2022-09-09T12:12:50;3.90;;;0.77;;
18997;SDS011;9632;51.018;4.284;2022-09-09T12:15:17;9.63;;;0.93;;
18997;SDS011;9632;51.018;4.284;2022-09-09T12:17:56;4.80;;;0.98;;
18997;SDS011;9632;51.018;4.284;2022-09-09T12:20:33;5.90;;;1.10;;
18997;SDS011;9632;51.018;4.284;2022-09-09T12:34:02;6.65;;;1.00;;
18997;SDS011;9632;51.018;4.284;2022-09-09T12:36:35;7.43;;;0.95;;
18997;SDS011;9632;51.018;4.284;2022-09-09T12:39:09;7.30;;;0.90;;
18997;SDS011;9632;51.018;4.284;2022-09-09T12:41:51;5.75;;;0.90;;
18997;SDS011;9632;51.018;4.284;2022-09-09T12:44:22;4.40;;;0.90;;
18997;SDS011;9632;51.018;4.284;2022-09-09T12:46:49;3.88;;;0.80;;
18997;SDS011;9632;51.018;4.284;2022-09-09T12:51:53;4.70;;;0.82;;
18997;SDS011;9632;51.018;4.284;2022-09-09T12:54:19;6.80;;;0.98;;
18997;SDS011;9632;51.018;4.284;2022-09-09T12:56:46;6.50;;;1.20;;
18997;SDS011;9632;51.018;4.284;2022-09-09T12:59:22;5.85;;;0.98;;
18997;SDS011;9632;51.018;4.284;2022-09-09T13:02:00;6.68;;;0.90;;
18997;SDS011;9632;51.018;4.284;2022-09-09T13:04:25;3.55;;;0.88;;
18997;SDS011;9632;51.018;4.284;2022-09-09T13:06:51;5.35;;;0.85;;
18997;SDS011;9632;51.018;4.284;2022-09-09T13:09:17;4.70;;;0.75;;
18997;SDS011;9632;51.018;4.284;2022-09-09T13:11:51;3.25;;;0.65;;
18997;SDS011;9632;51.018;4.284;2022-09-09T13:14:33;7.32;;;0.90;;
18997;SDS011;9632;51.018;4.284;2022-09-09T13:17:03;7.75;;;0.80;;
18997;SDS011;9632;51.018;4.284;2022-09-09T13:19:35;5.07;;;0.85;;
18997;SDS011;9632;51.018;4.284;2022-09-09T13:23:03;3.92;;;0.75;;
18997;SDS011;9632;51.018;4.284;2022-09-09T13:25:03;4.18;;;0.88;;
18997;SDS011;9632;51.018;4.284;2022-09-09T13:27:37;3.60;;;0.80;;
18997;SDS011;9632;51.018;4.284;2022-09-09T13:30:18;5.55;;;0.90;;
18997;SDS011;9632;51.018;4.284;2022-09-09T13:32:59;3.13;;;0.60;;
18997;SDS011;9632;51.018;4.284;2022-09-09T13:35:46;4.88;;;0.90;;
18997;SDS011;9632;51.018;4.284;2022-09-09T13:38:15;5.53;;;1.00;;
18997;SDS011;9632;51.018;4.284;2022-09-09T13:40:51;5.90;;;1.13;;
18997;SDS011;9632;51.018;4.284;2022-09-09T13:43:20;5.22;;;0.80;;
18997;SDS011;9632;51.018;4.284;2022-09-09T13:48:59;4.57;;;0.80;;
18997;SDS011;9632;51.018;4.284;2022-09-09T13:51:34;6.03;;;0.80;;
18997;SDS011;9632;51.018;4.284;2022-09-09T13:54:04;4.13;;;0.73;;
18997;SDS011;9632;51.018;4.284;2022-09-09T13:56:32;2.80;;;0.82;;
18997;SDS011;9632;51.018;4.284;2022-09-09T13:58:58;4.13;;;0.70;;
18997;SDS011;9632;51.018;4.284;2022-09-09T14:01:24;4.10;;;0.85;;
18997;SDS011;9632;51.018;4.284;2022-09-09T14:03:50;6.82;;;0.88;;
18997;SDS011;9632;51.018;4.284;2022-09-09T14:06:16;4.10;;;0.50;;
18997;SDS011;9632;51.018;4.284;2022-09-09T14:08:43;5.13;;;0.65;;
18997;SDS011;9632;51.018;4.284;2022-09-09T14:11:11;2.78;;;0.70;;
18997;SDS011;9632;51.018;4.284;2022-09-09T14:13:38;5.68;;;0.80;;
18997;SDS011;9632;51.018;4.284;2022-09-09T14:16:04;3.05;;;0.60;;
18997;SDS011;9632;51.018;4.284;2022-09-09T14:18:30;3.50;;;0.57;;
18997;SDS011;9632;51.018;4.284;2022-09-09T14:20:55;4.90;;;0.88;;
18997;SDS011;9632;51.018;4.284;2022-09-09T14:23:25;4.72;;;0.77;;
18997;SDS011;9632;51.018;4.284;2022-09-09T14:25:51;3.67;;;0.60;;
18997;SDS011;9632;51.018;4.284;2022-09-09T14:28:17;3.70;;;0.70;;
18997;SDS011;9632;51.018;4.284;2022-09-09T14:30:43;3.53;;;0.70;;
18997;SDS011;9632;51.018;4.284;2022-09-09T14:33:10;3.88;;;0.80;;
18997;SDS011;9632;51.018;4.284;2022-09-09T14:35:37;3.03;;;0.55;;
18997;SDS011;9632;51.018;4.284;2022-09-09T14:38:03;5.15;;;0.70;;
18997;SDS011;9632;51.018;4.284;2022-09-09T14:43:52;3.60;;;0.82;;
18997;SDS011;9632;51.018;4.284;2022-09-09T14:49:15;5.18;;;0.77;;
18997;SDS011;9632;51.018;4.284;2022-09-09T14:51:41;6.47;;;0.98;;
18997;SDS011;9632;51.018;4.284;2022-09-09T14:57:13;4.13;;;1.00;;
18997;SDS011;9632;51.018;4.284;2022-09-09T14:59:38;4.47;;;0.80;;
18997;SDS011;9632;51.018;4.284;2022-09-09T15:02:04;7.47;;;1.17;;
18997;SDS011;9632;51.018;4.284;2022-09-09T15:04:30;2.28;;;0.60;;
18997;SDS011;9632;51.018;4.284;2022-09-09T15:06:56;2.83;;;0.80;;
18997;SDS011;9632;51.018;4.284;2022-09-09T15:09:22;8.70;;;0.80;;
18997;SDS011;9632;51.018;4.284;2022-09-09T15:11:48;2.90;;;0.50;;
18997;SDS011;9632;51.018;4.284;2022-09-09T15:14:14;7.40;;;1.30;;
18997;SDS011;9632;51.018;4.284;2022-09-09T15:16:40;9.95;;;1.42;;
18997;SDS011;9632;51.018;4.284;2022-09-09T15:19:06;3.78;;;0.90;;
18997;SDS011;9632;51.018;4.284;2022-09-09T15:21:33;6.15;;;0.70;;
18997;SDS011;9632;51.018;4.284;2022-09-09T15:24:00;2.85;;;0.40;;
18997;SDS011;9632;51.018;4.284;2022-09-09T15:26:26;3.67;;;0.60;;
18997;SDS011;9632;51.018;4.284;2022-09-09T15:28:52;2.75;;;0.50;;
18997;SDS011;9632;51.018;4.284;2022-09-09T15:31:23;3.55;;;0.60;;
18997;SDS011;9632;51.018;4.284;2022-09-09T15:33:51;3.15;;;0.60;;
18997;SDS011;9632;51.018;4.284;2022-09-09T15:36:25;3.78;;;0.77;;
18997;SDS011;9632;51.018;4.284;2022-09-09T15:38:53;4.90;;;0.70;;
18997;SDS011;9632;51.018;4.284;2022-09-09T15:41:20;2.33;;;0.75;;
18997;SDS011;9632;51.018;4.284;2022-09-09T15:43:47;4.55;;;0.73;;
18997;SDS011;9632;51.018;4.284;2022-09-09T15:46:22;3.17;;;0.70;;
18997;SDS011;9632;51.018;4.284;2022-09-09T15:48:54;4.93;;;0.90;;
18997;SDS011;9632;51.018;4.284;2022-09-09T15:51:21;3.75;;;0.80;;
18997;SDS011;9632;51.018;4.284;2022-09-09T15:53:48;6.45;;;1.45;;
18997;SDS011;9632;51.018;4.284;2022-09-09T15:56:18;2.60;;;0.85;;
18997;SDS011;9632;51.018;4.284;2022-09-09T15:58:44;4.85;;;1.10;;
18997;SDS011;9632;51.018;4.284;2022-09-09T16:01:10;5.07;;;1.15;;
18997;SDS011;9632;51.018;4.284;2022-09-09T16:03:41;4.85;;;1.15;;
18997;SDS011;9632;51.018;4.284;2022-09-09T16:06:11;3.85;;;1.15;;
18997;SDS011;9632;51.018;4.284;2022-09-09T16:08:41;4.70;;;1.15;;
18997;SDS011;9632;51.018;4.284;2022-09-09T16:11:11;5.40;;;1.13;;
18997;SDS011;9632;51.018;4.284;2022-09-09T16:13:40;4.18;;;1.02;;
18997;SDS011;9632;51.018;4.284;2022-09-09T16:16:07;5.90;;;1.10;;
18997;SDS011;9632;51.018;4.284;2022-09-09T16:18:35;3.88;;;1.17;;
18997;SDS011;9632;51.018;4.284;2022-09-09T16:21:04;5.47;;;1.38;;
18997;SDS011;9632;51.018;4.284;2022-09-09T16:23:33;5.22;;;1.27;;
18997;SDS011;9632;51.018;4.284;2022-09-09T16:26:01;4.70;;;1.00;;
18997;SDS011;9632;51.018;4.284;2022-09-09T16:28:28;5.65;;;1.20;;
18997;SDS011;9632;51.018;4.284;2022-09-09T16:30:53;4.20;;;1.45;;
18997;SDS011;9632;51.018;4.284;2022-09-09T16:33:19;4.28;;;1.08;;
18997;SDS011;9632;51.018;4.284;2022-09-09T16:35:45;5.05;;;1.23;;
18997;SDS011;9632;51.018;4.284;2022-09-09T16:38:11;5.43;;;1.35;;
18997;SDS011;9632;51.018;4.284;2022-09-09T16:40:37;5.43;;;1.70;;
18997;SDS011;9632;51.018;4.284;2022-09-09T16:43:03;3.80;;;1.10;;
18997;SDS011;9632;51.018;4.284;2022-09-09T16:45:30;5.10;;;1.42;;
18997;SDS011;9632;51.018;4.284;2022-09-09T16:47:57;5.05;;;1.30;;
18997;SDS011;9632;51.018;4.284;2022-09-09T16:50:24;3.92;;;1.00;;
18997;SDS011;9632;51.018;4.284;2022-09-09T16:52:50;2.83;;;0.93;;
18997;SDS011;9632;51.018;4.284;2022-09-09T16:55:17;4.75;;;0.90;;
18997;SDS011;9632;51.018;4.284;2022-09-09T16:57:45;1.52;;;0.70;;
18997;SDS011;9632;51.018;4.284;2022-09-09T17:00:14;2.53;;;0.90;;
18997;SDS011;9632;51.018;4.284;2022-09-09T17:02:41;1.80;;;0.70;;
18997;SDS011;9632;51.018;4.284;2022-09-09T17:05:08;2.17;;;0.80;;
18997;SDS011;9632;51.018;4.284;2022-09-09T17:07:34;4.68;;;0.90;;
18997;SDS011;9632;51.018;4.284;2022-09-09T17:10:00;4.00;;;1.00;;
18997;SDS011;9632;51.018;4.284;2022-09-09T17:12:26;2.25;;;0.93;;
18997;SDS011;9632;51.018;4.284;2022-09-09T17:14:52;2.53;;;0.70;;
18997;SDS011;9632;51.018;4.284;2022-09-09T17:17:17;2.28;;;0.80;;
18997;SDS011;9632;51.018;4.284;2022-09-09T17:19:43;3.13;;;0.90;;
18997;SDS011;9632;51.018;4.284;2022-09-09T17:22:08;2.92;;;0.98;;
18997;SDS011;9632;51.018;4.284;2022-09-09T17:24:34;6.63;;;1.10;;
18997;SDS011;9632;51.018;4.284;2022-09-09T17:27:03;2.20;;;1.15;;
18997;SDS011;9632;51.018;4.284;2022-09-09T17:29:29;2.45;;;0.82;;
18997;SDS011;9632;51.018;4.284;2022-09-09T17:31:54;1.55;;;0.93;;
18997;SDS011;9632;51.018;4.284;2022-09-09T17:34:20;4.25;;;1.20;;
18997;SDS011;9632;51.018;4.284;2022-09-09T17:36:45;3.90;;;1.20;;
18997;SDS011;9632;51.018;4.284;2022-09-09T17:39:12;1.83;;;0.60;;
18997;SDS011;9632;51.018;4.284;2022-09-09T17:41:38;4.47;;;1.23;;
18997;SDS011;9632;51.018;4.284;2022-09-09T17:44:05;4.40;;;1.00;;
18997;SDS011;9632;51.018;4.284;2022-09-09T17:46:39;2.22;;;1.00;;
18997;SDS011;9632;51.018;4.284;2022-09-09T17:49:06;6.38;;;0.90;;
18997;SDS011;9632;51.018;4.284;2022-09-09T17:51:34;4.57;;;0.90;;
18997;SDS011;9632;51.018;4.284;2022-09-09T17:54:05;5.07;;;1.20;;
18997;SDS011;9632;51.018;4.284;2022-09-09T17:56:32;2.92;;;0.95;;
18997;SDS011;9632;51.018;4.284;2022-09-09T17:58:59;3.08;;;0.80;;
18997;SDS011;9632;51.018;4.284;2022-09-09T18:01:27;3.42;;;0.90;;
18997;SDS011;9632;51.018;4.284;2022-09-09T18:03:55;3.38;;;0.82;;
18997;SDS011;9632;51.018;4.284;2022-09-09T18:06:23;3.53;;;1.00;;
18997;SDS011;9632;51.018;4.284;2022-09-09T18:08:55;2.97;;;0.90;;
18997;SDS011;9632;51.018;4.284;2022-09-09T18:11:23;4.13;;;0.82;;
18997;SDS011;9632;51.018;4.284;2022-09-09T18:13:55;4.05;;;0.95;;
18997;SDS011;9632;51.018;4.284;2022-09-09T18:16:23;4.93;;;0.90;;
18997;SDS011;9632;51.018;4.284;2022-09-09T18:18:50;4.53;;;0.98;;
18997;SDS011;9632;51.018;4.284;2022-09-09T18:21:16;3.85;;;1.00;;
18997;SDS011;9632;51.018;4.284;2022-09-09T18:23:43;4.95;;;0.88;;